Time;durP1;ratioP1;P1;durP2;ratioP2;P2;SDS_P1;SDS_P2;PMS_P1;PMS_P2;Temp;Humidity;BMP_temperature;BMP_pressure;BME280_temperature;BME280_humidity;BME280_pressure;Samples;Min_cycle;Max_cycle;Signal;HPM_P1;HPM_P2
2021/01/30 00:00:37;;;;;;;;;;;24.80;64.40;;;;;;6241003;23;19915;-67
2021/01/30 00:03:04;;;;;;;;;;;24.80;64.50;;;;;;6240661;23;19900;-67
2021/01/30 00:05:31;;;;;;;;;;;24.80;64.50;;;;;;6241734;23;19899;-67
2021/01/30 00:07:57;;;;;;;;;;;24.80;64.50;;;;;;6241793;23;19982;-67
2021/01/30 00:10:23;;;;;;;;;;;24.70;64.50;;;;;;6241541;23;19899;-67
2021/01/30 00:12:50;;;;;;;;;;;24.70;64.50;;;;;;6241783;23;19907;-67
2021/01/30 00:15:18;;;;;;;;;;;24.70;64.50;;;;;;6240702;23;19904;-66
2021/01/30 00:17:44;;;;;;;;;;;24.70;64.50;;;;;;6241836;23;19900;-67
2021/01/30 00:20:12;;;;;;;;;;;24.70;64.50;;;;;;6241830;23;20258;-67
2021/01/30 00:22:39;;;;;;;;;;;24.70;64.40;;;;;;6241783;23;19938;-67
2021/01/30 00:25:05;;;;;;;;;;;24.70;64.40;;;;;;6240748;23;20291;-67
2021/01/30 00:27:32;;;;;;;;;;;24.70;64.30;;;;;;6241238;23;19899;-66
2021/01/30 00:29:58;;;;;;;;;;;24.60;64.30;;;;;;6241967;23;19899;-67
2021/01/30 00:32:44;;;;;;;;;;;24.60;64.20;;;;;;6236348;23;20236;-66
2021/01/30 00:35:30;;;;;;;;;;;24.60;64.10;;;;;;6241318;23;19904;-67
2021/01/30 00:38:16;;;;;;;;;;;24.60;64.00;;;;;;6240477;23;19945;-66
2021/01/30 00:41:01;;;;;;;;;;;24.60;64.00;;;;;;6241893;23;19904;-65
2021/01/30 00:43:47;;;;;;;;;;;24.60;64.00;;;;;;6242605;23;19911;-67
2021/01/30 00:46:33;;;;;;;;;;;24.60;64.00;;;;;;6240455;23;19981;-66
2021/01/30 00:49:19;;;;;;;;;;;24.60;64.00;;;;;;6242009;23;19918;-67
2021/01/30 00:52:05;;;;;;;;;;;24.60;64.00;;;;;;6242260;23;19906;-67
2021/01/30 00:54:51;;;;;;;;;;;24.60;64.00;;;;;;6240840;23;19962;-66
2021/01/30 00:57:37;;;;;;;;;;;24.50;64.00;;;;;;6242124;23;19907;-66
2021/01/30 01:00:23;;;;;;;;;;;24.50;64.00;;;;;;6241430;23;19911;-66
2021/01/30 01:03:09;;;;;;;;;;;24.40;64.00;;;;;;6240301;23;20607;-67
2021/01/30 01:05:54;;;;;;;;;;;24.50;64.10;;;;;;6242509;23;19900;-66
2021/01/30 01:08:40;;;;;;;;;;;24.50;64.10;;;;;;6241358;23;19909;-66
2021/01/30 01:11:26;;;;;;;;;;;24.50;64.20;;;;;;6240119;23;20339;-66
2021/01/30 01:14:12;;;;;;;;;;;24.50;64.10;;;;;;6242741;23;19918;-66
2021/01/30 01:16:58;;;;;;;;;;;24.40;64.20;;;;;;6242469;23;19934;-67
2021/01/30 01:19:44;;;;;;;;;;;24.40;64.20;;;;;;6243026;23;19899;-67
2021/01/30 01:22:30;;;;;;;;;;;24.40;64.20;;;;;;6243647;23;19899;-67
2021/01/30 01:25:15;;;;;;;;;;;24.40;64.10;;;;;;6242536;23;19899;-66
2021/01/30 01:28:01;;;;;;;;;;;24.40;64.10;;;;;;6243278;23;19946;-67
2021/01/30 01:30:47;;;;;;;;;;;24.40;64.70;;;;;;6243246;23;19921;-67
2021/01/30 01:33:33;;;;;;;;;;;24.40;63.90;;;;;;6242685;23;19950;-66
2021/01/30 01:36:19;;;;;;;;;;;24.40;63.90;;;;;;6243502;23;19899;-66
2021/01/30 01:39:05;;;;;;;;;;;24.30;63.90;;;;;;6242349;23;19900;-67
2021/01/30 01:41:51;;;;;;;;;;;24.40;63.90;;;;;;6242586;23;19978;-66
2021/01/30 01:44:36;;;;;;;;;;;24.30;63.90;;;;;;6243676;23;20425;-67
2021/01/30 01:47:22;;;;;;;;;;;24.30;63.80;;;;;;6241839;23;19900;-66
2021/01/30 01:50:08;;;;;;;;;;;24.30;63.80;;;;;;6243224;23;19943;-67
2021/01/30 01:52:54;;;;;;;;;;;24.30;63.60;;;;;;6243093;23;19906;-66
2021/01/30 01:55:40;;;;;;;;;;;24.30;63.60;;;;;;6242371;23;19900;-67
2021/01/30 01:58:26;;;;;;;;;;;24.30;63.50;;;;;;6243857;23;20239;-67
2021/01/30 02:01:12;;;;;;;;;;;24.20;63.40;;;;;;6243209;23;19950;-67
2021/01/30 02:03:58;;;;;;;;;;;24.20;63.40;;;;;;6242089;23;19927;-66
2021/01/30 02:06:43;;;;;;;;;;;24.20;63.30;;;;;;6243264;23;19900;-67
2021/01/30 02:09:29;;;;;;;;;;;24.20;63.20;;;;;;6241941;23;19899;-67
2021/01/30 02:11:55;;;;;;;;;;;24.20;63.20;;;;;;6241984;23;19931;-67
2021/01/30 02:14:41;;;;;;;;;;;24.20;63.20;;;;;;6242675;23;19907;-67
2021/01/30 02:17:27;;;;;;;;;;;24.10;63.10;;;;;;6241899;23;19903;-67
2021/01/30 02:20:08;;;;;;;;;;;24.10;63.10;;;;;;6242847;23;19900;-67
2021/01/30 02:22:40;;;;;;;;;;;24.10;63.10;;;;;;6242317;23;20243;-66
2021/01/30 02:25:25;;;;;;;;;;;24.10;63.10;;;;;;6242104;23;19896;-66
2021/01/30 02:28:09;;;;;;;;;;;24.10;63.20;;;;;;6242714;23;19904;-67
2021/01/30 02:30:41;;;;;;;;;;;24.10;63.30;;;;;;6241591;23;19979;-67
2021/01/30 02:33:14;;;;;;;;;;;24.10;63.30;;;;;;6240283;23;20211;-66
2021/01/30 02:35:58;;;;;;;;;;;24.10;63.30;;;;;;6243100;23;19906;-66
2021/01/30 02:38:44;;;;;;;;;;;24.10;63.30;;;;;;6241401;23;19974;-66
2021/01/30 02:41:30;;;;;;;;;;;24.10;63.40;;;;;;6243125;23;19907;-66
2021/01/30 02:44:16;;;;;;;;;;;24.10;63.50;;;;;;6241678;23;19910;-66
2021/01/30 02:47:02;;;;;;;;;;;24.10;63.60;;;;;;6241838;23;19903;-68
2021/01/30 02:49:47;;;;;;;;;;;24.10;63.70;;;;;;6242739;23;19904;-67
2021/01/30 02:52:33;;;;;;;;;;;24.00;63.90;;;;;;6240799;23;19899;-66
2021/01/30 02:55:19;;;;;;;;;;;24.10;64.00;;;;;;6241963;23;19918;-66
2021/01/30 02:58:05;;;;;;;;;;;24.00;63.80;;;;;;6242658;23;20281;-67
2021/01/30 03:00:51;;;;;;;;;;;24.00;63.60;;;;;;6241373;23;19911;-67
2021/01/30 03:03:37;;;;;;;;;;;24.00;63.50;;;;;;6242242;23;19990;-66
2021/01/30 03:06:38;;;;;;;;;;;24.00;63.60;;;;;;6242489;23;19907;-67
2021/01/30 03:09:23;;;;;;;;;;;24.00;63.50;;;;;;6241326;23;20418;-67
2021/01/30 03:12:15;;;;;;;;;;;24.10;63.60;;;;;;6242931;23;19907;-66
2021/01/30 03:15:01;;;;;;;;;;;24.00;63.60;;;;;;6238644;23;19962;-66
2021/01/30 03:17:46;;;;;;;;;;;24.00;63.40;;;;;;6241203;23;19923;-67
2021/01/30 03:20:32;;;;;;;;;;;24.00;63.40;;;;;;6242965;23;19986;-69
2021/01/30 03:23:18;;;;;;;;;;;24.00;63.40;;;;;;6241477;23;19903;-68
2021/01/30 03:26:04;;;;;;;;;;;24.00;63.40;;;;;;6241070;23;19899;-67
2021/01/30 03:28:50;;;;;;;;;;;24.00;63.30;;;;;;6242779;23;19899;-67
2021/01/30 03:31:36;;;;;;;;;;;24.00;63.40;;;;;;6241638;23;19955;-67
2021/01/30 03:34:22;;;;;;;;;;;24.00;63.40;;;;;;6241394;23;19908;-68
2021/01/30 03:37:08;;;;;;;;;;;24.00;63.30;;;;;;6241949;23;20025;-67
2021/01/30 03:39:54;;;;;;;;;;;24.00;63.30;;;;;;6240765;23;20227;-68
2021/01/30 03:42:40;;;;;;;;;;;23.90;63.30;;;;;;6242195;23;19900;-67
2021/01/30 03:45:26;;;;;;;;;;;23.90;63.30;;;;;;6242554;23;19903;-66
2021/01/30 03:48:12;;;;;;;;;;;24.00;63.40;;;;;;6241198;23;19904;-67
2021/01/30 03:50:57;;;;;;;;;;;23.90;63.40;;;;;;6242376;23;19899;-66
2021/01/30 03:53:43;;;;;;;;;;;23.90;63.40;;;;;;6241844;23;19949;-67
2021/01/30 03:56:29;;;;;;;;;;;23.90;63.40;;;;;;6241466;23;19936;-67
2021/01/30 03:59:15;;;;;;;;;;;23.90;63.40;;;;;;6242002;23;19986;-67
2021/01/30 04:02:01;;;;;;;;;;;23.90;63.60;;;;;;6241304;23;19912;-66
2021/01/30 04:04:47;;;;;;;;;;;23.90;63.70;;;;;;6241292;23;19991;-67
2021/01/30 04:07:33;;;;;;;;;;;23.90;63.80;;;;;;6241416;23;19904;-67
2021/01/30 04:10:18;;;;;;;;;;;23.90;63.80;;;;;;6240612;23;20347;-68
2021/01/30 04:13:04;;;;;;;;;;;23.90;63.90;;;;;;6241149;23;19947;-67
2021/01/30 04:15:50;;;;;;;;;;;23.90;64.00;;;;;;6242094;23;19969;-68
2021/01/30 04:18:36;;;;;;;;;;;23.90;64.00;;;;;;6241045;23;19923;-66
2021/01/30 04:21:22;;;;;;;;;;;23.90;64.80;;;;;;6242411;23;19930;-69
2021/01/30 04:24:08;;;;;;;;;;;23.90;64.10;;;;;;6241672;23;19899;-68
2021/01/30 04:26:54;;;;;;;;;;;23.90;64.20;;;;;;6240643;23;19900;-68
2021/01/30 04:29:39;;;;;;;;;;;23.90;64.20;;;;;;6242087;23;20271;-67
2021/01/30 04:32:25;;;;;;;;;;;23.90;64.30;;;;;;6241421;23;20373;-67
2021/01/30 04:35:11;;;;;;;;;;;23.90;64.30;;;;;;6240635;23;19918;-67
2021/01/30 04:37:57;;;;;;;;;;;23.90;64.30;;;;;;6242148;23;19906;-66
2021/01/30 04:40:43;;;;;;;;;;;23.90;64.30;;;;;;6240424;23;19900;-67
2021/01/30 04:43:35;;;;;;;;;;;23.90;64.20;;;;;;6240859;23;19907;-66
2021/01/30 04:46:24;;;;;;;;;;;23.90;64.20;;;;;;6241987;23;20432;-67
2021/01/30 04:49:08;;;;;;;;;;;23.90;64.20;;;;;;6240887;23;19978;-66
2021/01/30 04:51:55;;;;;;;;;;;23.90;64.00;;;;;;6244076;23;20197;-65
2021/01/30 04:54:44;;;;;;;;;;;23.90;63.90;;;;;;6243655;23;19907;-65
2021/01/30 04:57:13;;;;;;;;;;;23.90;63.80;;;;;;6242354;23;20271;-65
2021/01/30 04:59:42;;;;;;;;;;;23.90;63.60;;;;;;6244154;23;19927;-65
2021/01/30 05:02:26;;;;;;;;;;;23.90;63.60;;;;;;6242697;23;19919;-66
2021/01/30 05:05:12;;;;;;;;;;;24.00;63.70;;;;;;6242822;23;20365;-66
2021/01/30 05:07:57;;;;;;;;;;;24.00;63.70;;;;;;6243512;23;19903;-66
2021/01/30 05:10:23;;;;;;;;;;;23.90;64.60;;;;;;6242777;23;19900;-70
2021/01/30 05:12:49;;;;;;;;;;;23.90;64.40;;;;;;6243274;23;19908;-68
2021/01/30 05:15:15;;;;;;;;;;;23.90;64.10;;;;;;6241548;23;19998;-68
2021/01/30 05:18:01;;;;;;;;;;;24.00;64.00;;;;;;6242744;23;19950;-65
2021/01/30 05:20:53;;;;;;;;;;;24.00;63.90;;;;;;6243144;23;19899;-66
2021/01/30 05:23:39;;;;;;;;;;;24.00;63.70;;;;;;6242095;23;19900;-66
2021/01/30 05:26:05;;;;;;;;;;;24.00;63.70;;;;;;6243365;23;19899;-67
2021/01/30 05:28:59;;;;;;;;;;;24.10;63.70;;;;;;6243553;23;19910;-66
2021/01/30 05:32:04;;;;;;;;;;;24.10;63.70;;;;;;6242377;23;19912;-67
2021/01/30 05:34:50;;;;;;;;;;;24.10;63.70;;;;;;6243362;23;19946;-68
2021/01/30 05:37:36;;;;;;;;;;;24.10;63.70;;;;;;6225403;23;19909;-68
2021/01/30 05:40:08;;;;;;;;;;;24.10;63.70;;;;;;6241911;23;19903;-70
2021/01/30 05:42:34;;;;;;;;;;;24.20;63.70;;;;;;6243595;23;20374;-67
2021/01/30 05:45:36;;;;;;;;;;;24.20;63.80;;;;;;6242152;23;20320;-67
2021/01/30 05:48:22;;;;;;;;;;;24.20;63.80;;;;;;6148998;23;19901;-67
2021/01/30 05:50:50;;;;;;;;;;;24.20;64.00;;;;;;6236500;23;19904;-66
2021/01/30 05:53:36;;;;;;;;;;;24.30;64.20;;;;;;6242683;23;19907;-67
2021/01/30 05:56:22;;;;;;;;;;;24.30;64.40;;;;;;6243813;23;20318;-66
2021/01/30 05:59:08;;;;;;;;;;;24.30;64.40;;;;;;6242886;23;20407;-66
2021/01/30 06:01:54;;;;;;;;;;;24.30;64.30;;;;;;6241705;23;19911;-65
2021/01/30 06:04:46;;;;;;;;;;;24.30;64.30;;;;;;6243200;23;19906;-66
2021/01/30 06:07:51;;;;;;;;;;;24.30;64.30;;;;;;6242865;23;20445;-66
2021/01/30 06:10:36;;;;;;;;;;;24.40;64.30;;;;;;6242382;23;19923;-65
2021/01/30 06:13:06;;;;;;;;;;;24.30;64.80;;;;;;6243318;23;19912;-65
2021/01/30 06:15:51;;;;;;;;;;;24.30;64.50;;;;;;6241745;23;19986;-65
2021/01/30 06:18:37;;;;;;;;;;;24.40;64.30;;;;;;6242321;23;20231;-66
2021/01/30 06:21:23;;;;;;;;;;;24.40;64.00;;;;;;6243302;23;19903;-66
2021/01/30 06:24:24;;;;;;;;;;;24.40;63.40;;;;;;6241615;23;19900;-66
2021/01/30 06:27:10;;;;;;;;;;;24.40;63.10;;;;;;6242617;23;20053;-66
2021/01/30 06:29:56;;;;;;;;;;;24.40;63.40;;;;;;6242992;23;19907;-65
2021/01/30 06:32:42;;;;;;;;;;;24.30;63.50;;;;;;6241487;23;19910;-65
2021/01/30 06:35:28;;;;;;;;;;;24.40;64.20;;;;;;6242909;23;20316;-65
2021/01/30 06:38:00;;;;;;;;;;;24.10;62.80;;;;;;6243155;23;20233;-65
2021/01/30 06:40:46;;;;;;;;;;;23.80;62.10;;;;;;6241248;23;19900;-65
2021/01/30 06:43:32;;;;;;;;;;;23.70;62.50;;;;;;6242871;23;19899;-64
2021/01/30 06:46:24;;;;;;;;;;;23.80;61.40;;;;;;6241642;23;19968;-64
2021/01/30 06:49:13;;;;;;;;;;;23.70;61.60;;;;;;6236880;23;19946;-64
2021/01/30 06:51:59;;;;;;;;;;;23.60;62.40;;;;;;6243324;23;19903;-64
2021/01/30 06:54:45;;;;;;;;;;;23.60;62.60;;;;;;6241288;23;19915;-64
2021/01/30 06:57:11;;;;;;;;;;;23.80;62.40;;;;;;6241619;23;19906;-64
2021/01/30 06:59:39;;;;;;;;;;;23.80;60.50;;;;;;6242750;23;19907;-65
2021/01/30 07:02:18;;;;;;;;;;;23.90;60.10;;;;;;6240655;23;19918;-64
2021/01/30 07:05:11;;;;;;;;;;;24.10;58.20;;;;;;6242197;23;19899;-64
2021/01/30 07:07:56;;;;;;;;;;;24.10;57.90;;;;;;6238111;23;19899;-65
2021/01/30 07:10:40;;;;;;;;;;;24.30;58.30;;;;;;6240531;23;19903;-65
2021/01/30 07:13:25;;;;;;;;;;;24.50;57.20;;;;;;6241177;23;19943;-65
2021/01/30 07:16:14;;;;;;;;;;;24.50;57.20;;;;;;6239867;23;19903;-64
2021/01/30 07:19:12;;;;;;;;;;;24.50;57.20;;;;;;6241357;23;19900;-65
2021/01/30 07:21:59;;;;;;;;;;;24.50;57.00;;;;;;6191560;23;19958;-65
2021/01/30 07:24:45;;;;;;;;;;;24.40;57.50;;;;;;6240972;23;19899;-66
2021/01/30 07:27:31;;;;;;;;;;;24.60;58.10;;;;;;6241917;23;19978;-65
2021/01/30 07:30:23;;;;;;;;;;;24.50;57.60;;;;;;6242102;23;20304;-64
2021/01/30 07:33:18;;;;;;;;;;;24.40;57.30;;;;;;6240830;23;19906;-65
2021/01/30 07:36:22;;;;;;;;;;;24.50;56.90;;;;;;6241759;23;20373;-64
2021/01/30 07:39:02;;;;;;;;;;;24.80;56.50;;;;;;6241360;23;19899;-64
2021/01/30 07:41:31;;;;;;;;;;;25.00;55.40;;;;;;6240240;23;19966;-64
2021/01/30 07:44:01;;;;;;;;;;;25.10;55.40;;;;;;6242899;23;19903;-64
2021/01/30 07:46:31;;;;;;;;;;;25.00;54.50;;;;;;6241289;23;19982;-65
2021/01/30 07:49:04;;;;;;;;;;;25.00;55.30;;;;;;6241539;23;19903;-65
2021/01/30 07:51:50;;;;;;;;;;;25.00;55.20;;;;;;6241659;23;19934;-64
2021/01/30 07:54:16;;;;;;;;;;;25.10;55.20;;;;;;6239882;23;19907;-64
2021/01/30 07:56:42;;;;;;;;;;;25.10;54.90;;;;;;6242103;23;20421;-64
2021/01/30 07:59:18;;;;;;;;;;;25.10;55.10;;;;;;6240849;23;20324;-65
2021/01/30 08:01:46;;;;;;;;;;;25.00;55.50;;;;;;6242053;23;19997;-64
2021/01/30 08:04:21;;;;;;;;;;;24.80;56.00;;;;;;6241501;23;19906;-64
2021/01/30 08:06:53;;;;;;;;;;;24.80;56.60;;;;;;6240564;23;19904;-64
2021/01/30 08:09:30;;;;;;;;;;;25.10;56.00;;;;;;6241711;23;19904;-65
2021/01/30 08:12:15;;;;;;;;;;;25.00;55.90;;;;;;6240532;23;20002;-65
2021/01/30 08:14:59;;;;;;;;;;;25.10;56.30;;;;;;6241208;23;20329;-64
2021/01/30 08:17:31;;;;;;;;;;;25.00;56.30;;;;;;6240682;23;19919;-64
2021/01/30 08:20:01;;;;;;;;;;;25.10;56.70;;;;;;6239812;23;20286;-65
2021/01/30 08:22:34;;;;;;;;;;;24.90;57.40;;;;;;6241571;23;19900;-65
2021/01/30 08:25:12;;;;;;;;;;;24.60;58.40;;;;;;6238691;23;19899;-66
2021/01/30 08:27:47;;;;;;;;;;;24.80;57.70;;;;;;6240541;23;19903;-65
2021/01/30 08:30:21;;;;;;;;;;;24.90;57.40;;;;;;6240733;23;19900;-65
2021/01/30 08:33:13;;;;;;;;;;;24.90;57.80;;;;;;6240616;23;19986;-66
2021/01/30 08:35:44;;;;;;;;;;;25.00;57.60;;;;;;6237656;23;19899;-64
2021/01/30 08:38:16;;;;;;;;;;;25.00;57.40;;;;;;6240494;23;20235;-64
2021/01/30 08:40:44;;;;;;;;;;;25.10;57.00;;;;;;6241922;23;20038;-63
2021/01/30 08:43:20;;;;;;;;;;;25.30;56.60;;;;;;6241164;23;19903;-63
2021/01/30 08:45:46;;;;;;;;;;;25.20;56.70;;;;;;6240835;23;19925;-64
2021/01/30 08:48:26;;;;;;;;;;;25.10;57.00;;;;;;6241564;23;20229;-63
2021/01/30 08:50:54;;;;;;;;;;;24.90;56.80;;;;;;6240613;23;19930;-63
2021/01/30 08:53:23;;;;;;;;;;;25.10;56.50;;;;;;6242133;23;19914;-64
2021/01/30 08:55:54;;;;;;;;;;;25.20;57.00;;;;;;6241265;23;20379;-64
2021/01/30 08:58:35;;;;;;;;;;;25.20;56.70;;;;;;6241678;23;19900;-65
2021/01/30 09:01:01;;;;;;;;;;;25.30;56.80;;;;;;6241767;23;19949;-65
2021/01/30 09:03:43;;;;;;;;;;;25.30;56.30;;;;;;6240223;23;19899;-65
2021/01/30 09:06:29;;;;;;;;;;;25.30;56.40;;;;;;6242040;23;19903;-64
2021/01/30 09:09:04;;;;;;;;;;;25.10;56.50;;;;;;6240907;23;20327;-65
2021/01/30 09:11:36;;;;;;;;;;;25.20;56.70;;;;;;6241078;23;19904;-64
2021/01/30 09:14:04;;;;;;;;;;;25.40;55.90;;;;;;6241492;23;19908;-65
2021/01/30 09:16:50;;;;;;;;;;;25.20;55.90;;;;;;6239920;23;19924;-65
2021/01/30 09:19:22;;;;;;;;;;;25.10;56.00;;;;;;6194094;23;19903;-65
2021/01/30 09:22:10;;;;;;;;;;;25.20;56.20;;;;;;6241405;23;20347;-65
2021/01/30 09:25:00;;;;;;;;;;;25.20;56.30;;;;;;6241207;23;19978;-64
2021/01/30 09:27:49;;;;;;;;;;;25.40;56.50;;;;;;6241539;23;19978;-65
2021/01/30 09:30:41;;;;;;;;;;;25.50;56.40;;;;;;6239835;23;19953;-64
2021/01/30 09:33:23;;;;;;;;;;;25.60;56.50;;;;;;6238190;23;19990;-64
2021/01/30 09:36:09;;;;;;;;;;;25.70;56.40;;;;;;6241801;23;19899;-64
2021/01/30 09:38:59;;;;;;;;;;;26.00;54.30;;;;;;6239562;23;20217;-65
2021/01/30 09:41:51;;;;;;;;;;;25.90;54.80;;;;;;6234017;23;19904;-65
2021/01/30 09:44:39;;;;;;;;;;;25.80;55.50;;;;;;6239728;23;19923;-66
2021/01/30 09:47:25;;;;;;;;;;;25.90;55.60;;;;;;6241443;23;19900;-65
2021/01/30 09:50:14;;;;;;;;;;;25.90;55.80;;;;;;6242203;23;20315;-66
2021/01/30 09:53:10;;;;;;;;;;;25.90;55.50;;;;;;6242366;23;19953;-65
2021/01/30 09:55:56;;;;;;;;;;;26.00;55.60;;;;;;6221899;23;19945;-65
2021/01/30 09:58:22;;;;;;;;;;;26.00;55.60;;;;;;6243140;23;19900;-65
2021/01/30 10:00:48;;;;;;;;;;;26.00;56.20;;;;;;6240344;23;19947;-65
2021/01/30 10:03:22;;;;;;;;;;;26.00;56.00;;;;;;6242177;23;19927;-66
2021/01/30 10:05:50;;;;;;;;;;;26.00;55.80;;;;;;6242907;23;19899;-64
2021/01/30 10:08:36;;;;;;;;;;;26.10;56.50;;;;;;6241668;23;19900;-65
2021/01/30 10:11:02;;;;;;;;;;;26.10;55.80;;;;;;6242693;23;19982;-65
2021/01/30 10:13:29;;;;;;;;;;;26.40;55.80;;;;;;6241937;23;20639;-69
2021/01/30 10:15:55;;;;;;;;;;;26.40;55.50;;;;;;6242845;23;19900;-66
2021/01/30 10:18:23;;;;;;;;;;;26.50;55.40;;;;;;6242729;23;19990;-65
2021/01/30 10:20:49;;;;;;;;;;;26.50;55.10;;;;;;6242440;23;19919;-64
2021/01/30 10:23:30;;;;;;;;;;;26.70;54.60;;;;;;6242998;23;19900;-64
2021/01/30 10:26:11;;;;;;;;;;;26.70;54.30;;;;;;6241071;23;19907;-65
2021/01/30 10:29:00;;;;;;;;;;;26.70;54.00;;;;;;6242048;23;19904;-66
2021/01/30 10:31:29;;;;;;;;;;;26.40;54.60;;;;;;6241946;23;19903;-66
2021/01/30 10:34:00;;;;;;;;;;;26.60;55.40;;;;;;6240556;23;19915;-67
2021/01/30 10:36:27;;;;;;;;;;;27.00;54.60;;;;;;6241921;23;19998;-65
2021/01/30 10:38:54;;;;;;;;;;;27.20;54.00;;;;;;6240301;23;19904;-67
2021/01/30 10:41:20;;;;;;;;;;;27.40;53.60;;;;;;6241838;23;20239;-66
2021/01/30 10:43:48;;;;;;;;;;;27.50;53.30;;;;;;6240543;23;19903;-66
2021/01/30 10:46:21;;;;;;;;;;;27.80;51.90;;;;;;6241170;23;20268;-67
2021/01/30 10:48:47;;;;;;;;;;;27.90;51.90;;;;;;6241341;23;19903;-66
2021/01/30 10:51:24;;;;;;;;;;;28.00;51.50;;;;;;6241242;23;19994;-67
2021/01/30 10:54:08;;;;;;;;;;;28.00;51.30;;;;;;6241437;23;20272;-66
2021/01/30 10:56:34;;;;;;;;;;;28.10;51.40;;;;;;6240522;23;20112;-65
2021/01/30 10:59:00;;;;;;;;;;;28.00;51.40;;;;;;6241831;23;19943;-66
2021/01/30 11:01:28;;;;;;;;;;;28.10;51.20;;;;;;6240342;23;20308;-66
2021/01/30 11:04:04;;;;;;;;;;;28.10;51.30;;;;;;6240473;23;19900;-66
2021/01/30 11:06:43;;;;;;;;;;;28.20;51.30;;;;;;6241985;23;19949;-65
2021/01/30 11:09:26;;;;;;;;;;;28.20;50.70;;;;;;6240150;23;20337;-66
2021/01/30 11:12:12;;;;;;;;;;;28.30;50.40;;;;;;6242294;23;19930;-67
2021/01/30 11:14:38;;;;;;;;;;;28.30;49.90;;;;;;6224547;23;19915;-65
2021/01/30 11:17:15;;;;;;;;;;;28.30;49.70;;;;;;6239601;23;20267;-66
2021/01/30 11:19:42;;;;;;;;;;;28.30;49.80;;;;;;6241841;23;19973;-66
2021/01/30 11:22:21;;;;;;;;;;;28.30;49.90;;;;;;6240811;23;19904;-66
2021/01/30 11:24:51;;;;;;;;;;;28.30;49.80;;;;;;6241554;23;19903;-67
2021/01/30 11:27:29;;;;;;;;;;;28.40;49.90;;;;;;6241383;23;19900;-67
2021/01/30 11:29:55;;;;;;;;;;;28.40;50.10;;;;;;6240773;23;19918;-67
2021/01/30 11:32:23;;;;;;;;;;;28.40;50.30;;;;;;6241702;23;19983;-66
2021/01/30 11:34:56;;;;;;;;;;;28.40;50.60;;;;;;6239765;23;19961;-67
2021/01/30 11:37:23;;;;;;;;;;;28.40;50.60;;;;;;6241424;23;19900;-67
2021/01/30 11:39:49;;;;;;;;;;;28.50;50.80;;;;;;6239934;23;20346;-67
2021/01/30 11:42:15;;;;;;;;;;;28.40;50.80;;;;;;6241887;23;19900;-66
2021/01/30 11:44:41;;;;;;;;;;;28.50;51.20;;;;;;6240379;23;19904;-67
2021/01/30 11:47:07;;;;;;;;;;;28.50;51.20;;;;;;6241552;23;19948;-67
2021/01/30 11:49:33;;;;;;;;;;;28.50;51.20;;;;;;6241338;23;19906;-67
2021/01/30 11:52:00;;;;;;;;;;;28.60;51.20;;;;;;6239806;23;19907;-67
2021/01/30 11:54:26;;;;;;;;;;;28.60;51.10;;;;;;6241597;23;19915;-67
2021/01/30 11:56:52;;;;;;;;;;;28.70;51.10;;;;;;6238424;23;19907;-67
2021/01/30 11:59:18;;;;;;;;;;;28.60;50.90;;;;;;6239896;23;19899;-67
2021/01/30 12:01:45;;;;;;;;;;;28.60;50.90;;;;;;6238694;23;19911;-67
2021/01/30 12:04:13;;;;;;;;;;;28.70;50.90;;;;;;6238944;22;20323;-67
2021/01/30 12:06:40;;;;;;;;;;;28.70;50.70;;;;;;6239246;23;20279;-68
2021/01/30 12:09:26;;;;;;;;;;;28.70;50.40;;;;;;6238660;23;19899;-67
2021/01/30 12:12:12;;;;;;;;;;;28.70;50.40;;;;;;6233955;23;19899;-67
2021/01/30 12:14:58;;;;;;;;;;;28.80;50.40;;;;;;6238362;23;19911;-67
2021/01/30 12:17:50;;;;;;;;;;;28.70;50.10;;;;;;6239625;23;19903;-67
2021/01/30 12:20:36;;;;;;;;;;;28.80;50.10;;;;;;6239180;23;20316;-67
2021/01/30 12:23:22;;;;;;;;;;;28.80;50.10;;;;;;6238759;23;20466;-67
2021/01/30 12:26:08;;;;;;;;;;;28.80;50.10;;;;;;6239946;23;19930;-67
2021/01/30 12:28:54;;;;;;;;;;;28.80;50.10;;;;;;6239098;23;20315;-67
2021/01/30 12:31:39;;;;;;;;;;;28.80;50.20;;;;;;6238500;22;19900;-66
2021/01/30 12:34:25;;;;;;;;;;;28.80;50.30;;;;;;6240121;23;19953;-67
2021/01/30 12:37:11;;;;;;;;;;;28.90;50.30;;;;;;6238296;23;19925;-68
2021/01/30 12:39:57;;;;;;;;;;;28.90;50.30;;;;;;6238288;23;19903;-67
2021/01/30 12:42:43;;;;;;;;;;;28.90;50.30;;;;;;6239129;23;19907;-67
2021/01/30 12:45:29;;;;;;;;;;;28.90;50.40;;;;;;6238903;23;20431;-67
2021/01/30 12:48:15;;;;;;;;;;;29.00;51.00;;;;;;6238819;23;19903;-67
2021/01/30 12:51:01;;;;;;;;;;;29.00;50.00;;;;;;6239378;23;19949;-67
2021/01/30 12:53:46;;;;;;;;;;;29.00;49.80;;;;;;6238231;23;19942;-67
2021/01/30 12:56:33;;;;;;;;;;;29.00;49.80;;;;;;6239111;23;19910;-66
2021/01/30 12:59:19;;;;;;;;;;;29.00;49.60;;;;;;6240617;23;20307;-66
2021/01/30 13:02:06;;;;;;;;;;;29.00;49.80;;;;;;6239026;22;19915;-66
2021/01/30 13:04:52;;;;;;;;;;;29.00;50.50;;;;;;6239740;23;20320;-65
2021/01/30 13:07:37;;;;;;;;;;;29.00;50.70;;;;;;6239340;23;19909;-65
2021/01/30 13:10:23;;;;;;;;;;;28.90;50.50;;;;;;6239855;23;19926;-66
2021/01/30 13:13:09;;;;;;;;;;;28.90;51.00;;;;;;6241981;23;19899;-68
2021/01/30 13:15:55;;;;;;;;;;;28.90;51.20;;;;;;6241161;23;19906;-67
2021/01/30 13:18:41;;;;;;;;;;;28.90;51.30;;;;;;6240794;23;19986;-67
2021/01/30 13:21:27;;;;;;;;;;;29.00;51.50;;;;;;6241898;23;20231;-67
2021/01/30 13:23:53;;;;;;;;;;;29.10;51.40;;;;;;6240432;23;20398;-67
2021/01/30 13:26:19;;;;;;;;;;;29.10;51.00;;;;;;6241494;23;20268;-68
2021/01/30 13:28:45;;;;;;;;;;;29.10;50.90;;;;;;6241176;23;19903;-67
2021/01/30 13:31:11;;;;;;;;;;;29.20;50.80;;;;;;6241278;23;19911;-67
2021/01/30 13:33:37;;;;;;;;;;;29.20;50.80;;;;;;6241700;23;19990;-68
2021/01/30 13:36:03;;;;;;;;;;;29.20;50.80;;;;;;6240084;23;19899;-67
2021/01/30 13:38:29;;;;;;;;;;;29.30;50.80;;;;;;6241624;23;19977;-68
2021/01/30 13:40:55;;;;;;;;;;;29.30;51.20;;;;;;6240453;23;20237;-67
2021/01/30 13:43:21;;;;;;;;;;;29.30;51.30;;;;;;6241621;23;20029;-67
2021/01/30 13:45:50;;;;;;;;;;;29.30;51.30;;;;;;6240920;23;19973;-69
2021/01/30 13:48:17;;;;;;;;;;;29.30;51.20;;;;;;6240754;23;19921;-68
2021/01/30 13:50:43;;;;;;;;;;;29.40;51.10;;;;;;6241595;23;19903;-68
2021/01/30 13:53:09;;;;;;;;;;;29.40;51.10;;;;;;6240146;23;19970;-67
2021/01/30 13:55:36;;;;;;;;;;;29.30;50.90;;;;;;6241918;23;19946;-68
2021/01/30 13:58:02;;;;;;;;;;;29.30;51.00;;;;;;6240386;23;19904;-67
2021/01/30 14:00:28;;;;;;;;;;;29.30;51.00;;;;;;6241813;23;19915;-67
2021/01/30 14:02:54;;;;;;;;;;;29.40;51.00;;;;;;6240575;23;19904;-67
2021/01/30 14:05:27;;;;;;;;;;;29.40;50.90;;;;;;6242005;23;20461;-67
2021/01/30 14:07:57;;;;;;;;;;;29.40;50.70;;;;;;6240961;23;19900;-68
2021/01/30 14:10:24;;;;;;;;;;;29.30;50.60;;;;;;6239728;23;19904;-67
2021/01/30 14:12:50;;;;;;;;;;;29.30;50.60;;;;;;6240068;23;19954;-68
2021/01/30 14:15:16;;;;;;;;;;;29.30;50.60;;;;;;6239002;23;20324;-67
2021/01/30 14:17:42;;;;;;;;;;;29.30;50.60;;;;;;6239852;23;20014;-67
2021/01/30 14:20:09;;;;;;;;;;;29.40;50.50;;;;;;6239072;23;19975;-68
2021/01/30 14:22:35;;;;;;;;;;;29.40;50.50;;;;;;6240029;23;20373;-68
2021/01/30 14:25:02;;;;;;;;;;;29.40;50.60;;;;;;6239500;23;19957;-67
2021/01/30 14:27:28;;;;;;;;;;;29.40;51.20;;;;;;6239215;23;19903;-68
2021/01/30 14:29:54;;;;;;;;;;;29.30;50.60;;;;;;6240537;23;19910;-68
2021/01/30 14:32:21;;;;;;;;;;;29.30;50.70;;;;;;6238731;23;19927;-67
2021/01/30 14:34:47;;;;;;;;;;;29.30;50.70;;;;;;6239607;23;19908;-67
2021/01/30 14:37:13;;;;;;;;;;;29.30;50.80;;;;;;6238568;23;19906;-67
2021/01/30 14:39:39;;;;;;;;;;;29.20;50.90;;;;;;6240665;23;20323;-67
2021/01/30 14:42:05;;;;;;;;;;;29.20;51.10;;;;;;6239055;23;19899;-67
2021/01/30 14:44:31;;;;;;;;;;;29.10;51.30;;;;;;6239001;23;20216;-66
2021/01/30 14:46:58;;;;;;;;;;;29.10;51.50;;;;;;6239901;23;19900;-67
2021/01/30 14:49:26;;;;;;;;;;;29.00;51.50;;;;;;6238400;23;19896;-67
2021/01/30 14:51:52;;;;;;;;;;;29.00;51.50;;;;;;6239509;23;19903;-67
2021/01/30 14:54:19;;;;;;;;;;;29.00;51.60;;;;;;6238719;23;19914;-68
2021/01/30 14:56:45;;;;;;;;;;;29.00;51.50;;;;;;6239557;23;19912;-68
2021/01/30 14:59:14;;;;;;;;;;;29.00;51.40;;;;;;6238290;23;19978;-67
2021/01/30 15:01:40;;;;;;;;;;;29.00;51.30;;;;;;6238933;23;20484;-68
2021/01/30 15:04:06;;;;;;;;;;;29.00;51.40;;;;;;6240396;23;19899;-67
2021/01/30 15:06:33;;;;;;;;;;;29.00;51.40;;;;;;6239550;23;19900;-68
2021/01/30 15:08:59;;;;;;;;;;;29.00;51.30;;;;;;6240671;23;19899;-68
2021/01/30 15:11:25;;;;;;;;;;;29.00;51.30;;;;;;6239655;23;19899;-67
2021/01/30 15:13:51;;;;;;;;;;;28.90;51.30;;;;;;6240638;23;20339;-70
2021/01/30 15:16:17;;;;;;;;;;;28.90;51.40;;;;;;6239155;23;20201;-70
2021/01/30 15:19:03;;;;;;;;;;;28.90;51.60;;;;;;6240511;23;19903;-69
2021/01/30 15:21:49;;;;;;;;;;;28.60;51.90;;;;;;6239444;23;20076;-68